Data for 12/13/2017

Time Sea-Level Adjusted Pressure Absolute Pressure Temperature Relative Humidity Dew Point   
(mb) (inHg) (mb) (inHg) (C) (F) (%) (C) (F)
00:05 1025 30.27 855 25.25 2.6 36.6 46 -8 17.7
00:10 1025 30.27 855 25.25 2.5 36.6 44 -8.5 16.6
00:15 1025 30.27 855 25.25 2.7 36.9 41 -9.1 15.5
00:20 1025 30.27 855 25.25 3 37.3 41 -9.1 15.6
00:25 1026 30.3 855 25.25 3.1 37.6 40 -9.2 15.4
00:30 1026 30.3 855 25.25 3.2 37.7 43 -8.1 17.4
00:35 1026 30.3 855 25.25 2.7 36.9 45 -8 17.5
00:40 1026 30.3 855 25.25 2.5 36.4 45 -8.4 16.9
00:45 1026 30.3 855 25.25 2.4 36.4 44 -8.7 16.4
00:50 1026 30.3 855 25.25 2.5 36.4 44 -8.6 16.4
00:55 1026 30.3 855 25.25 2.5 36.5 41 -9.4 15.1
01:00 1026 30.3 855 25.25 2.8 37 42 -8.8 16.2
01:05 1026 30.3 855 25.25 2.3 36.1 46 -8.2 17.3
01:10 1025 30.27 855 25.25 1.7 35 45 -8.9 15.9
01:15 1026 30.3 855 25.25 1.6 34.8 46 -8.8 16.1
01:20 1025 30.27 855 25.25 1.5 34.7 45 -9.2 15.5
01:25 1025 30.27 855 25.25 1.7 35 44 -9.4 15
01:30 1025 30.27 855 25.25 1.2 34.2 48 -8.6 16.4
01:35 1025 30.27 854 25.22 1.1 33.9 48 -8.7 16.3
01:40 1025 30.27 854 25.22 0.8 33.5 50 -8.6 16.6
01:45 1025 30.27 854 25.22 0.9 33.7 52 -7.9 17.7
01:50 1025 30.27 854 25.22 0.7 33.2 52 -8.1 17.4
01:55 1025 30.27 854 25.22 0.5 32.9 52 -8.2 17.2
02:00 1025 30.27 854 25.22 0.7 33.3 51 -8.2 17.3
02:05 1025 30.27 854 25.22 0 32.1 56 -7.6 18.3
02:10 1025 30.27 854 25.22 -0.7 30.7 60 -7.6 18.3
02:15 1025 30.27 854 25.22 -0.7 30.8 59 -7.7 18.2
02:20 1025 30.27 854 25.22 -0.6 30.9 59 -7.8 18
02:25 1025 30.27 854 25.22 -0.2 31.6 55 -8.3 17.1
02:30 1025 30.27 854 25.22 0.2 32.4 49 -9.4 15.1
02:35 1025 30.27 854 25.22 0.7 33.3 49 -8.9 16.1
02:40 1025 30.27 854 25.22 0.9 33.7 49 -8.6 16.6
02:45 1025 30.27 854 25.22 0.8 33.5 49 -8.6 16.5
02:50 1025 30.27 854 25.22 0.7 33.2 50 -8.6 16.6
02:55 1025 30.27 854 25.22 0.4 32.6 52 -8.3 17.1
03:00 1025 30.27 854 25.22 0 32.1 53 -8.4 16.9
03:05 1025 30.27 854 25.22 -0 32 53 -8.5 16.7
03:10 1025 30.27 854 25.22 -0.2 31.7 52 -8.9 16
03:15 1025 30.27 854 25.22 -0.2 31.6 53 -8.8 16.2
03:20 1025 30.27 854 25.22 -0 31.9 49 -9.6 14.8
03:25 1025 30.27 854 25.22 0.2 32.3 50 -9.1 15.7
03:30 1025 30.27 854 25.22 -0 31.9 49 -9.5 14.8
03:35 1025 30.27 854 25.22 0 32 48 -9.8 14.3
03:40 1025 30.27 854 25.22 0 32 46 -10.3 13.5
03:45 1025 30.27 854 25.22 -0 31.9 46 -10.3 13.5
03:50 1025 30.27 854 25.22 0.2 32.4 45 -10.5 13.2
03:55 1025 30.27 854 25.22 0.1 32.1 45 -10.5 13
04:00 1025 30.27 854 25.22 -0.2 31.6 46 -10.6 13
04:05 1024 30.24 854 25.22 -0.4 31.3 46 -10.7 12.7
04:10 1025 30.27 854 25.22 -0.2 31.6 43 -11.3 11.7
04:15 1025 30.27 854 25.22 0.1 32.1 41 -11.7 10.9
04:20 1024 30.24 854 25.22 0.3 32.5 39 -12 10.4
04:25 1024 30.24 854 25.22 0.7 33.3 38 -12.1 10.2
04:30 1024 30.24 854 25.22 1 33.9 37 -12.2 10.1
04:35 1024 30.24 854 25.22 0.7 33.2 40 -11.6 11.2
04:40 1024 30.24 854 25.22 0.5 33 39 -11.8 10.7
04:45 1024 30.24 854 25.22 0.8 33.5 43 -10.5 13.1
04:50 1024 30.24 854 25.22 0.3 32.5 44 -10.6 12.9
04:55 1024 30.24 854 25.22 -0.3 31.5 47 -10.2 13.6
05:00 1024 30.24 854 25.22 -0.9 30.3 47 -10.9 12.4
05:05 1024 30.24 854 25.22 -1.2 29.8 46 -11.4 11.5
05:10 1024 30.24 854 25.22 -1 30.2 45 -11.4 11.5
05:15 1024 30.24 853 25.19 -0.7 30.7 43 -11.8 10.7
05:20 1024 30.24 853 25.19 -0.3 31.5 40 -12.2 10
05:25 1024 30.24 853 25.19 0.1 32.1 38 -12.6 9.3
05:30 1024 30.24 853 25.19 0.5 32.9 35 -13.2 8.2
05:35 1024 30.24 853 25.19 0.9 33.6 35 -12.8 8.9
05:40 1024 30.24 853 25.19 0.5 32.9 41 -11.4 11.5
05:45 1024 30.24 853 25.19 -0.7 30.7 44 -11.5 11.3
05:50 1024 30.24 853 25.19 -1.1 30.1 45 -11.5 11.4
05:55 1024 30.24 853 25.19 -1.1 30 44 -11.7 10.9
06:00 1024 30.24 853 25.19 -0.9 30.4 44 -11.7 11
06:05 1024 30.24 853 25.19 -0.3 31.4 42 -11.9 10.6
06:10 1024 30.24 853 25.19 -0.1 31.9 41 -11.8 10.8
06:15 1024 30.24 853 25.19 -0.2 31.6 41 -12.1 10.3
06:20 1024 30.24 853 25.19 -0.1 31.7 40 -12 10.3
06:25 1024 30.24 853 25.19 -0.2 31.6 42 -11.7 11
06:30 1024 30.24 853 25.19 -0.4 31.3 41 -12 10.4
06:35 1024 30.24 853 25.19 -0.6 31 42 -12 10.4
06:40 1024 30.24 853 25.19 -0.7 30.8 43 -11.7 11
06:45 1024 30.24 853 25.19 -0.9 30.4 45 -11.5 11.3
06:50 1024 30.24 853 25.19 -1.1 29.9 47 -11.1 12.1
06:55 1024 30.24 853 25.19 -1.4 29.6 49 -10.7 12.8
07:00 1024 30.24 853 25.19 -1.1 30 45 -11.6 11.2
07:05 1024 30.24 853 25.19 -0.9 30.3 46 -11.2 11.8
07:10 1024 30.24 853 25.19 -1.1 30.1 47 -11 12.1
07:15 1024 30.24 853 25.19 -1 30.2 45 -11.6 11.1
07:20 1024 30.24 853 25.19 -0.8 30.7 43 -11.9 10.5
07:25 1024 30.24 853 25.19 -0.4 31.3 41 -12.1 10.3
07:30 1024 30.24 853 25.19 -0.1 31.7 40 -12.1 10.2
07:35 1024 30.24 853 25.19 0.1 32.1 40 -12 10.3
07:40 1024 30.24 853 25.19 0.1 32.2 41 -11.7 11
07:45 1024 30.24 853 25.19 0.1 32.2 39 -12.1 10.2
07:50 1024 30.24 853 25.19 0.3 32.5 41 -11.6 11
07:55 1023 30.21 853 25.19 0.2 32.4 40 -11.8 10.8
08:00 1023 30.21 853 25.19 0 32.1 42 -11.4 11.4
08:05 1023 30.21 853 25.19 -0.2 31.7 44 -10.9 12.3
08:10 1023 30.21 853 25.19 -0.3 31.4 44 -11.1 12.1
08:15 1023 30.21 853 25.19 -0.1 31.9 40 -12 10.3
08:20 1023 30.21 853 25.19 0.6 33 37 -12.6 9.3
08:25 1023 30.21 853 25.19 1.1 33.9 35 -12.7 9.1
08:30 1023 30.21 853 25.19 1.2 34.1 35 -12.7 9.2
08:35 1023 30.21 853 25.19 1.2 34.1 36 -12.4 9.6
08:40 1023 30.21 853 25.19 1.2 34.1 36 -12.3 9.8
08:45 1023 30.21 853 25.19 1.1 34 40 -11.1 12
08:50 1023 30.21 853 25.19 0.7 33.3 43 -10.4 13.2
08:55 1024 30.24 853 25.19 0.3 32.5 46 -10 14.1
09:00 1024 30.24 853 25.19 0.5 32.9 45 -10.1 13.8
09:05 1024 30.24 853 25.19 0.5 32.8 44 -10.3 13.4
09:10 1024 30.24 853 25.19 0.2 32.4 48 -9.5 14.8
09:15 1024 30.24 853 25.19 0.4 32.7 46 -9.9 14.2
09:20 1024 30.24 853 25.19 0.7 33.2 47 -9.5 14.9
09:25 1024 30.24 853 25.19 0.8 33.4 52 -8.1 17.4
09:30 1024 30.24 853 25.19 0.8 33.4 53 -7.7 18.2
09:35 1024 30.24 854 25.22 0.7 33.3 55 -7.3 18.8
09:40 1025 30.27 854 25.22 0.6 33.1 55 -7.4 18.6
09:45 1025 30.27 854 25.22 0.2 32.3 55 -7.7 18.1
09:50 1025 30.27 854 25.22 -0.2 31.7 57 -7.7 18.1
09:55 1025 30.27 854 25.22 -0.3 31.5 57 -7.8 17.9
10:00 1025 30.27 854 25.22 -0.5 31.1 59 -7.5 18.5
10:05 1025 30.27 854 25.22 -0.7 30.8 58 -7.9 17.8
10:10 1025 30.27 855 25.25 -0.7 30.8 59 -7.7 18.1
10:15 1025 30.27 855 25.25 -0.5 31.1 58 -7.9 17.8
10:20 1026 30.3 855 25.25 -0.3 31.4 56 -8 17.7
10:25 1026 30.3 855 25.25 -0.3 31.5 58 -7.6 18.4
10:30 1026 30.3 855 25.25 -0.4 31.2 60 -7.4 18.8
10:35 1026 30.3 855 25.25 -0.6 30.9 64 -6.6 20.1
10:40 1026 30.3 855 25.25 -1 30.3 70 -5.8 21.6
10:45 1026 30.3 855 25.25 -1.4 29.5 75 -5.2 22.6
10:50 1026 30.3 855 25.25 -2 28.5 82 -4.7 23.6
10:55 1026 30.3 855 25.25 -2.3 27.8 84 -4.7 23.5
11:00 1025 30.27 855 25.25 -2.6 27.4 85 -4.8 23.4
11:05 1025 30.27 855 25.25 -3 26.5 87 -4.9 23.2
11:10 1025 30.27 855 25.25 -3.1 26.4 89 -4.7 23.5
11:15 1025 30.27 855 25.25 -2.8 26.9 88 -4.5 24
11:20 1025 30.27 854 25.22 -2.6 27.3 88 -4.4 24.1
11:25 1025 30.27 854 25.22 -2.7 27.1 88 -4.5 23.9
11:30 1025 30.27 854 25.22 -2.9 26.8 89 -4.5 23.9
11:35 1025 30.27 854 25.22 -2.8 26.9 89 -4.4 24.1
11:40 1025 30.27 854 25.22 -2.7 27.2 89 -4.2 24.4
11:45 1025 30.27 854 25.22 -2.4 27.7 89 -3.9 24.9
11:50 1025 30.27 854 25.22 -2.2 28 89 -3.8 25.1
11:55 1025 30.27 854 25.22 -2 28.3 89 -3.6 25.5
12:00 1025 30.27 854 25.22 -1.8 28.7 89 -3.5 25.8
12:05 1025 30.27 854 25.22 -1.4 29.4 89 -3.1 26.5
12:10 1025 30.27 854 25.22 -1.1 30 87 -3 26.6
12:15 1025 30.27 854 25.22 -1 30.1 87 -2.9 26.8
12:20 1025 30.27 854 25.22 -0.9 30.4 87 -2.8 27
12:25 1025 30.27 854 25.22 -0.7 30.7 87 -2.7 27.1
12:30 1025 30.27 854 25.22 -0.7 30.8 87 -2.6 27.4
12:35 1025 30.27 854 25.22 -0.4 31.2 87 -2.4 27.7
12:40 1025 30.27 854 25.22 -0.2 31.6 86 -2.2 28
12:45 1025 30.27 854 25.22 -0 31.9 86 -2.1 28.2
12:50 1025 30.27 854 25.22 0.1 32.2 86 -2 28.4
12:55 1024 30.24 854 25.22 0.3 32.5 85 -1.9 28.5
13:00 1024 30.24 854 25.22 0.2 32.4 85 -2.1 28.3
13:05 1024 30.24 854 25.22 0 32 85 -2.3 27.9
13:10 1024 30.24 853 25.19 -0.5 31.1 88 -2.2 28
13:15 1024 30.24 854 25.22 -0.4 31.3 87 -2.3 27.9
13:20 1024 30.24 853 25.19 -0.4 31.2 88 -2.2 28
13:25 1024 30.24 853 25.19 -0.5 31.1 86 -2.5 27.5
13:30 1024 30.24 853 25.19 -0.9 30.5 89 -2.5 27.6
13:35 1024 30.24 853 25.19 -0.6 30.8 90 -2.2 28.1
13:40 1024 30.24 853 25.19 -0.2 31.6 88 -2 28.5
13:45 1024 30.24 853 25.19 -0.1 31.8 88 -2 28.5
13:50 1024 30.24 853 25.19 -0.1 31.9 87 -2 28.4
13:55 1024 30.24 853 25.19 -0.3 31.5 88 -2 28.3
14:00 1024 30.24 853 25.19 -0.2 31.6 89 -1.9 28.6
14:05 1024 30.24 853 25.19 0 32.1 88 -1.7 28.9
14:10 1024 30.24 853 25.19 0.2 32.3 87 -1.8 28.8
14:15 1024 30.24 853 25.19 0.2 32.4 87 -1.7 29
14:20 1024 30.24 853 25.19 0.2 32.3 87 -1.7 28.9
14:25 1024 30.24 854 25.22 0.2 32.4 87 -1.6 29.1
14:30 1024 30.24 854 25.22 0.2 32.4 87 -1.6 29.1
14:35 1024 30.24 853 25.19 0.3 32.5 87 -1.6 29.1
14:40 1024 30.24 853 25.19 0.3 32.5 87 -1.6 29.1
14:45 1024 30.24 853 25.19 0.1 32.2 88 -1.7 29
14:50 1024 30.24 853 25.19 -0 31.9 89 -1.6 29
14:55 1024 30.24 853 25.19 0.2 32.3 88 -1.6 29.2
15:00 1024 30.24 853 25.19 0.1 32.2 89 -1.6 29.2
15:05 1024 30.24 854 25.22 0.1 32.2 88 -1.6 29.1
15:10 1024 30.24 854 25.22 0.1 32.1 88 -1.7 29
15:15 1024 30.24 854 25.22 0 32.1 88 -1.7 29
15:20 1024 30.24 854 25.22 0 32.1 88 -1.7 29
15:25 1024 30.24 854 25.22 0.1 32.2 88 -1.6 29
15:30 1025 30.27 854 25.22 0.1 32.1 88 -1.7 28.9
15:35 1025 30.27 854 25.22 0.1 32.1 88 -1.7 28.9
15:40 1025 30.27 854 25.22 0 32 88 -1.8 28.8
15:45 1025 30.27 854 25.22 -0 31.9 88 -1.8 28.8
15:50 1025 30.27 854 25.22 -0.1 31.8 88 -1.8 28.7
15:55 1025 30.27 854 25.22 -0.2 31.7 88 -1.9 28.5
16:00 1025 30.27 854 25.22 -0.3 31.5 88 -2 28.4
16:05 1025 30.27 854 25.22 -0.3 31.4 88 -2.1 28.3
16:10 1025 30.27 854 25.22 -0.4 31.2 89 -2.1 28.2
16:15 1025 30.27 854 25.22 -0.6 31 89 -2.2 28.1
16:20 1025 30.27 854 25.22 -0.5 31 89 -2.1 28.1
16:25 1025 30.27 854 25.22 -0.6 30.9 89 -2.2 28.1
16:30 1025 30.27 854 25.22 -0.7 30.8 89 -2.3 27.9
16:35 1025 30.27 854 25.22 -0.8 30.6 89 -2.3 27.8
16:40 1025 30.27 854 25.22 -0.8 30.6 89 -2.4 27.8
16:45 1025 30.27 854 25.22 -0.9 30.4 89 -2.4 27.7
16:50 1025 30.27 854 25.22 -0.9 30.3 90 -2.4 27.6
16:55 1025 30.27 855 25.25 -0.9 30.3 90 -2.4 27.7
17:00 1025 30.27 855 25.25 -1 30.2 90 -2.4 27.6
17:05 1025 30.27 855 25.25 -1.1 30.1 90 -2.5 27.6
17:10 1026 30.3 855 25.25 -1.1 30.1 90 -2.5 27.6
17:15 1026 30.3 855 25.25 -1.1 30 91 -2.4 27.6
17:20 1026 30.3 855 25.25 -1.1 30.1 91 -2.4 27.6
17:25 1026 30.3 855 25.25 -1.1 30.1 91 -2.4 27.7
17:30 1026 30.3 855 25.25 -1 30.2 90 -2.4 27.7
17:35 1026 30.3 855 25.25 -1 30.2 90 -2.4 27.7
17:40 1026 30.3 855 25.25 -1 30.2 91 -2.4 27.7
17:45 1026 30.3 856 25.28 -1 30.1 90 -2.4 27.6
17:50 1026 30.3 856 25.28 -1.2 29.9 90 -2.6 27.4
17:55 1027 30.33 856 25.28 -1.3 29.7 90 -2.7 27.2
18:00 1027 30.33 856 25.28 -1.4 29.4 91 -2.8 27
18:05 1027 30.33 856 25.28 -1.5 29.3 90 -2.9 26.8
18:10 1027 30.33 856 25.28 -1.6 29.2 91 -2.9 26.7
18:15 1027 30.33 856 25.28 -1.7 29 91 -2.9 26.7
18:20 1027 30.33 856 25.28 -1.7 28.9 91 -3 26.6
18:25 1027 30.33 856 25.28 -1.7 29 91 -2.9 26.7
18:30 1027 30.33 856 25.28 -1.7 29 91 -2.9 26.8
18:35 1027 30.33 856 25.28 -1.7 28.9 92 -3 26.7
18:40 1027 30.33 856 25.28 -1.8 28.8 92 -2.9 26.7
18:45 1027 30.33 856 25.28 -1.8 28.8 92 -2.9 26.7
18:50 1027 30.33 856 25.28 -1.8 28.8 92 -2.9 26.7
18:55 1027 30.33 856 25.28 -1.7 28.9 92 -2.8 26.9
19:00 1027 30.33 857 25.31 -1.6 29.1 91 -2.8 26.9
19:05 1027 30.33 856 25.28 -1.7 29 91 -2.9 26.7
19:10 1027 30.33 856 25.28 -1.8 28.8 92 -2.9 26.7
19:15 1027 30.33 857 25.31 -1.8 28.8 92 -2.9 26.8
19:20 1027 30.33 857 25.31 -1.7 28.9 92 -2.9 26.8
19:25 1028 30.36 857 25.31 -1.6 29.1 92 -2.8 26.9
19:30 1028 30.36 857 25.31 -1.5 29.2 91 -2.8 27
19:35 1028 30.36 857 25.31 -1.5 29.4 91 -2.8 27
19:40 1028 30.36 857 25.31 -1.5 29.4 91 -2.8 26.9
19:45 1028 30.36 857 25.31 -1.5 29.4 90 -2.9 26.8
19:50 1028 30.36 857 25.31 -1.5 29.3 90 -2.9 26.8
19:55 1028 30.36 857 25.31 -1.4 29.4 90 -2.9 26.8
20:00 1028 30.36 857 25.31 -1.5 29.4 90 -2.9 26.7
20:05 1028 30.36 857 25.31 -1.5 29.4 90 -2.9 26.7
20:10 1028 30.36 857 25.31 -1.5 29.3 89 -3 26.6
20:15 1028 30.36 857 25.31 -1.6 29.2 90 -3 26.5
20:20 1028 30.36 857 25.31 -1.6 29.2 90 -3.1 26.5
20:25 1028 30.36 857 25.31 -1.6 29.1 90 -3.1 26.5
20:30 1028 30.36 857 25.31 -1.6 29.1 89 -3.1 26.4
20:35 1028 30.36 857 25.31 -1.7 29 90 -3.2 26.3
20:40 1028 30.36 857 25.31 -1.7 28.9 90 -3.2 26.2
20:45 1028 30.36 857 25.31 -1.7 28.9 90 -3.2 26.2
20:50 1028 30.36 857 25.31 -1.7 29 89 -3.2 26.3